Time;durP1;ratioP1;P1;durP2;ratioP2;P2;SDS_P1;SDS_P2;PMS_P1;PMS_P2;Temp;Humidity;BMP_temperature;BMP_pressure;BME280_temperature;BME280_humidity;BME280_pressure;Samples;Min_cycle;Max_cycle;Signal;HPM_P1;HPM_P2
2023/10/21 00:00:42;;;;;;;;;;;12.70;90.80;;;;;;5095557;28;20025;-69
2023/10/21 00:03:15;;;;;;;;;;;12.70;90.80;;;;;;5098220;28;19928;-69
2023/10/21 00:05:48;;;;;;;;;;;12.80;90.70;;;;;;5090422;28;21129;-69
2023/10/21 00:08:22;;;;;;;;;;;12.80;90.80;;;;;;5094792;27;19924;-68
2023/10/21 00:11:05;;;;;;;;;;;12.80;90.90;;;;;;5095594;27;19966;-68
2023/10/21 00:13:38;;;;;;;;;;;12.80;91.00;;;;;;5094564;28;19940;-69
2023/10/21 00:16:11;;;;;;;;;;;12.70;91.00;;;;;;5096714;28;19932;-68
2023/10/21 00:18:45;;;;;;;;;;;12.70;91.00;;;;;;5096735;28;19932;-69
2023/10/21 00:21:18;;;;;;;;;;;12.70;91.00;;;;;;5098498;28;19931;-68
2023/10/21 00:23:52;;;;;;;;;;;12.70;90.90;;;;;;5093804;28;19932;-70
2023/10/21 00:26:26;;;;;;;;;;;12.80;91.00;;;;;;5093484;28;20017;-68
2023/10/21 00:29:00;;;;;;;;;;;12.80;91.10;;;;;;5084606;28;19928;-69
2023/10/21 00:31:33;;;;;;;;;;;12.80;91.20;;;;;;5095272;28;19931;-70
2023/10/21 00:34:06;;;;;;;;;;;12.80;91.10;;;;;;5090934;28;19928;-69
2023/10/21 00:36:39;;;;;;;;;;;12.80;91.10;;;;;;5091353;28;19932;-70
2023/10/21 00:39:13;;;;;;;;;;;12.80;91.00;;;;;;5099014;28;20007;-70
2023/10/21 00:41:47;;;;;;;;;;;12.80;91.10;;;;;;5096727;28;19973;-70
2023/10/21 00:44:20;;;;;;;;;;;12.90;91.10;;;;;;5096436;28;20002;-69
2023/10/21 00:46:54;;;;;;;;;;;12.80;91.20;;;;;;5108070;27;20284;-71
2023/10/21 00:49:29;;;;;;;;;;;12.80;91.20;;;;;;5078232;28;19931;-69
2023/10/21 00:52:04;;;;;;;;;;;12.90;91.20;;;;;;5092503;27;19927;-69
2023/10/21 00:54:31;;;;;;;;;;;12.90;91.20;;;;;;5094642;28;19977;-65
2023/10/21 00:57:04;;;;;;;;;;;12.90;91.10;;;;;;5090857;28;19932;-70
2023/10/21 00:59:40;;;;;;;;;;;12.90;91.10;;;;;;5091486;28;19924;-70
2023/10/21 01:02:13;;;;;;;;;;;12.90;91.10;;;;;;5107041;27;20363;-72
2023/10/21 01:04:47;;;;;;;;;;;12.80;91.00;;;;;;5094158;28;20000;-70
2023/10/21 01:07:20;;;;;;;;;;;12.90;90.80;;;;;;5086295;28;19971;-71
2023/10/21 01:09:54;;;;;;;;;;;12.80;90.70;;;;;;5108368;28;19931;-70
2023/10/21 01:12:28;;;;;;;;;;;12.80;90.80;;;;;;5102803;28;20294;-70
2023/10/21 01:15:01;;;;;;;;;;;12.80;90.80;;;;;;5096398;28;20299;-70
2023/10/21 01:17:34;;;;;;;;;;;12.80;90.80;;;;;;5094252;28;19923;-70
2023/10/21 01:20:09;;;;;;;;;;;12.80;90.90;;;;;;5094717;28;19986;-69
2023/10/21 01:22:42;;;;;;;;;;;12.80;90.80;;;;;;5098596;28;20558;-70
2023/10/21 01:25:16;;;;;;;;;;;12.90;90.90;;;;;;5090878;28;19928;-70
2023/10/21 01:27:52;;;;;;;;;;;12.90;90.90;;;;;;5093026;28;19932;-70
2023/10/21 01:30:19;;;;;;;;;;;12.90;90.70;;;;;;5096157;28;19973;-71
2023/10/21 01:32:52;;;;;;;;;;;12.90;90.60;;;;;;5094927;28;20413;-70
2023/10/21 01:35:25;;;;;;;;;;;13.00;90.80;;;;;;5094108;28;20337;-70
2023/10/21 01:37:58;;;;;;;;;;;13.10;90.80;;;;;;5094095;28;20018;-71
2023/10/21 01:40:32;;;;;;;;;;;13.10;90.60;;;;;;5094604;28;19935;-70
2023/10/21 01:43:06;;;;;;;;;;;13.10;90.60;;;;;;5098888;28;19951;-69
2023/10/21 01:45:39;;;;;;;;;;;13.20;90.60;;;;;;5110710;27;19955;-70
2023/10/21 01:48:12;;;;;;;;;;;13.20;90.60;;;;;;5096193;28;19923;-70
2023/10/21 01:50:45;;;;;;;;;;;13.20;90.40;;;;;;5097304;28;19931;-70
2023/10/21 01:53:18;;;;;;;;;;;13.20;90.30;;;;;;5093366;28;19924;-71
2023/10/21 01:55:46;;;;;;;;;;;13.20;90.20;;;;;;5096772;28;19932;-71
2023/10/21 01:58:19;;;;;;;;;;;13.30;90.10;;;;;;5082369;28;19928;-71
2023/10/21 02:00:46;;;;;;;;;;;13.30;89.90;;;;;;5098036;28;20290;-70
2023/10/21 02:03:19;;;;;;;;;;;13.40;89.80;;;;;;5094975;28;19928;-69
2023/10/21 02:05:52;;;;;;;;;;;13.40;89.70;;;;;;5081551;28;19973;-65
2023/10/21 02:08:25;;;;;;;;;;;13.40;89.70;;;;;;5093242;28;20746;-66
2023/10/21 02:10:59;;;;;;;;;;;13.40;89.60;;;;;;5094912;28;20006;-66
2023/10/21 02:13:34;;;;;;;;;;;13.40;89.60;;;;;;5097153;28;19927;-66
2023/10/21 02:16:09;;;;;;;;;;;13.50;89.50;;;;;;5110443;27;20396;-67
2023/10/21 02:18:42;;;;;;;;;;;13.50;89.50;;;;;;5096937;28;19963;-65
2023/10/21 02:21:23;;;;;;;;;;;13.60;89.40;;;;;;5116738;27;19935;-65
2023/10/21 02:23:56;;;;;;;;;;;13.60;89.20;;;;;;5099058;28;19936;-67
2023/10/21 02:26:30;;;;;;;;;;;13.60;89.20;;;;;;5113092;27;19951;-64
2023/10/21 02:29:04;;;;;;;;;;;13.60;89.20;;;;;;5098540;27;19928;-65
2023/10/21 02:31:37;;;;;;;;;;;13.70;89.30;;;;;;5092058;28;20366;-65
2023/10/21 02:34:10;;;;;;;;;;;13.70;89.30;;;;;;5097206;27;19932;-66
2023/10/21 02:36:43;;;;;;;;;;;13.60;89.20;;;;;;5094495;28;20035;-66
2023/10/21 02:39:18;;;;;;;;;;;13.70;89.20;;;;;;5097281;28;19924;-65
2023/10/21 02:41:52;;;;;;;;;;;13.70;89.40;;;;;;5100086;28;19928;-65
2023/10/21 02:44:27;;;;;;;;;;;13.70;89.40;;;;;;5096805;28;19974;-66
2023/10/21 02:47:00;;;;;;;;;;;13.70;89.70;;;;;;5095288;28;19928;-68
2023/10/21 02:49:33;;;;;;;;;;;13.70;89.80;;;;;;5095595;28;19928;-64
2023/10/21 02:52:06;;;;;;;;;;;13.70;89.70;;;;;;5089222;28;19932;-64
2023/10/21 02:54:39;;;;;;;;;;;13.70;89.80;;;;;;5078471;28;20419;-66
2023/10/21 02:57:13;;;;;;;;;;;13.70;89.70;;;;;;5088592;28;21058;-65
2023/10/21 02:59:47;;;;;;;;;;;13.70;89.80;;;;;;5090780;28;19928;-66
2023/10/21 03:02:20;;;;;;;;;;;13.70;89.80;;;;;;5097825;27;19928;-67
2023/10/21 03:04:53;;;;;;;;;;;13.80;89.80;;;;;;5096890;28;19924;-66
2023/10/21 03:07:26;;;;;;;;;;;13.80;89.90;;;;;;5107382;27;19969;-67
2023/10/21 03:10:06;;;;;;;;;;;13.70;89.90;;;;;;5092598;28;19931;-65
2023/10/21 03:12:41;;;;;;;;;;;13.70;89.90;;;;;;5097703;28;19951;-66
2023/10/21 03:15:23;;;;;;;;;;;13.70;90.00;;;;;;5092212;28;20351;-65
2023/10/21 03:17:56;;;;;;;;;;;13.70;90.20;;;;;;5088937;28;19986;-64
2023/10/21 03:20:31;;;;;;;;;;;13.70;90.20;;;;;;5094110;28;20039;-65
2023/10/21 03:23:05;;;;;;;;;;;13.70;90.30;;;;;;5084372;28;20310;-65
2023/10/21 03:25:38;;;;;;;;;;;13.70;90.30;;;;;;5094455;28;19928;-65
2023/10/21 03:28:12;;;;;;;;;;;13.70;90.30;;;;;;5097832;28;19932;-66
2023/10/21 03:30:47;;;;;;;;;;;13.80;90.30;;;;;;5099639;27;19963;-66
2023/10/21 03:33:21;;;;;;;;;;;13.80;90.30;;;;;;5096013;28;19928;-64
2023/10/21 03:35:55;;;;;;;;;;;13.80;90.30;;;;;;5087710;28;19935;-64
2023/10/21 03:38:22;;;;;;;;;;;13.80;90.20;;;;;;5095883;28;20413;-65
2023/10/21 03:40:56;;;;;;;;;;;13.80;90.20;;;;;;5086044;28;20051;-64
2023/10/21 03:43:30;;;;;;;;;;;13.80;90.10;;;;;;5089376;28;19934;-67
2023/10/21 03:46:05;;;;;;;;;;;13.90;89.60;;;;;;5098653;28;19924;-65
2023/10/21 03:48:38;;;;;;;;;;;13.90;89.50;;;;;;5094460;28;19932;-65
2023/10/21 03:51:12;;;;;;;;;;;13.90;89.10;;;;;;5110886;27;19932;-66
2023/10/21 03:53:46;;;;;;;;;;;13.90;88.80;;;;;;5099447;28;20009;-66
2023/10/21 03:56:19;;;;;;;;;;;13.90;88.60;;;;;;5096261;28;19977;-65
2023/10/21 03:58:53;;;;;;;;;;;14.00;88.10;;;;;;5104710;27;19924;-65
2023/10/21 04:01:27;;;;;;;;;;;14.00;87.70;;;;;;5098262;28;19928;-66
2023/10/21 04:04:00;;;;;;;;;;;14.10;87.60;;;;;;5099949;28;19928;-65
2023/10/21 04:06:33;;;;;;;;;;;14.10;87.70;;;;;;5090283;28;19924;-66
2023/10/21 04:09:07;;;;;;;;;;;14.10;87.50;;;;;;5092078;28;19924;-66
2023/10/21 04:11:42;;;;;;;;;;;14.10;87.30;;;;;;5094331;28;20290;-65
2023/10/21 04:14:16;;;;;;;;;;;14.10;87.30;;;;;;5096932;28;19928;-64
2023/10/21 04:16:50;;;;;;;;;;;14.10;87.40;;;;;;5099940;28;19934;-65
2023/10/21 04:19:23;;;;;;;;;;;14.10;87.40;;;;;;5098148;28;19971;-65
2023/10/21 04:21:56;;;;;;;;;;;14.20;87.40;;;;;;5097100;28;19931;-66
2023/10/21 04:24:30;;;;;;;;;;;14.20;87.40;;;;;;5099887;28;19935;-73
2023/10/21 04:27:03;;;;;;;;;;;14.10;87.60;;;;;;5097046;28;19950;-61
2023/10/21 04:29:38;;;;;;;;;;;14.10;87.70;;;;;;5095576;28;20042;-62
2023/10/21 04:32:12;;;;;;;;;;;14.10;87.80;;;;;;5092097;28;19964;-62
2023/10/21 04:34:45;;;;;;;;;;;14.10;87.90;;;;;;5093812;28;19928;-62
2023/10/21 04:37:18;;;;;;;;;;;14.20;88.00;;;;;;5095202;28;20374;-61
2023/10/21 04:39:51;;;;;;;;;;;14.20;88.10;;;;;;5098779;28;19955;-63
2023/10/21 04:42:24;;;;;;;;;;;14.20;88.10;;;;;;5094457;28;19950;-60
2023/10/21 04:44:59;;;;;;;;;;;14.10;88.10;;;;;;5095305;28;19935;-61
2023/10/21 04:47:32;;;;;;;;;;;14.20;88.20;;;;;;5085390;28;19930;-60
2023/10/21 04:50:06;;;;;;;;;;;14.20;88.20;;;;;;5082506;28;19941;-61
2023/10/21 04:52:39;;;;;;;;;;;14.20;88.30;;;;;;5085688;28;19935;-63
2023/10/21 04:55:12;;;;;;;;;;;14.20;88.30;;;;;;5087201;28;19963;-61
2023/10/21 04:57:45;;;;;;;;;;;14.10;88.40;;;;;;5093675;28;19978;-61
2023/10/21 05:00:20;;;;;;;;;;;14.20;88.30;;;;;;5089774;28;19924;-61
2023/10/21 05:02:54;;;;;;;;;;;14.20;88.40;;;;;;5089628;28;19924;-62
2023/10/21 05:05:27;;;;;;;;;;;14.20;88.50;;;;;;5091024;28;19959;-62
2023/10/21 05:08:00;;;;;;;;;;;14.20;88.50;;;;;;5082980;28;19932;-61
2023/10/21 05:10:33;;;;;;;;;;;14.20;88.70;;;;;;5074164;28;19927;-60
2023/10/21 05:13:06;;;;;;;;;;;14.10;88.60;;;;;;5090323;28;19930;-61
2023/10/21 05:15:41;;;;;;;;;;;14.20;88.80;;;;;;5099458;28;19928;-62
2023/10/21 05:18:14;;;;;;;;;;;14.20;88.90;;;;;;5100499;28;19974;-61
2023/10/21 05:20:47;;;;;;;;;;;14.20;89.10;;;;;;5096027;28;19931;-62
2023/10/21 05:23:20;;;;;;;;;;;14.10;89.50;;;;;;5101672;28;19932;-62
2023/10/21 05:25:54;;;;;;;;;;;14.10;89.70;;;;;;5095407;28;19923;-61
2023/10/21 05:28:27;;;;;;;;;;;14.10;90.00;;;;;;5099096;27;19932;-61
2023/10/21 05:31:03;;;;;;;;;;;14.10;90.30;;;;;;5094010;28;19928;-61
2023/10/21 05:33:36;;;;;;;;;;;14.00;90.40;;;;;;5097132;28;19924;-62
2023/10/21 05:36:10;;;;;;;;;;;14.00;90.60;;;;;;5102243;28;20010;-69
2023/10/21 05:38:43;;;;;;;;;;;14.00;90.90;;;;;;5092021;28;19940;-68
2023/10/21 05:41:16;;;;;;;;;;;14.00;91.00;;;;;;5094341;27;19928;-70
2023/10/21 05:43:49;;;;;;;;;;;13.90;91.10;;;;;;5097622;28;19931;-69
2023/10/21 05:46:24;;;;;;;;;;;13.90;91.20;;;;;;5092829;28;19928;-69
2023/10/21 05:48:57;;;;;;;;;;;13.90;91.30;;;;;;5096712;28;19927;-69
2023/10/21 05:51:30;;;;;;;;;;;13.90;91.40;;;;;;5094180;28;19967;-69
2023/10/21 05:53:57;;;;;;;;;;;13.90;91.40;;;;;;5098254;28;19924;-69
2023/10/21 05:56:30;;;;;;;;;;;13.90;91.40;;;;;;5099394;28;20390;-70
2023/10/21 05:59:04;;;;;;;;;;;13.90;91.50;;;;;;5096332;28;20275;-69
2023/10/21 06:01:39;;;;;;;;;;;13.90;91.40;;;;;;5098567;28;19924;-70
2023/10/21 06:04:12;;;;;;;;;;;13.90;91.40;;;;;;5094359;28;19938;-71
2023/10/21 06:06:45;;;;;;;;;;;13.90;91.30;;;;;;5093312;28;19928;-69
2023/10/21 06:09:18;;;;;;;;;;;13.90;91.30;;;;;;5094141;28;19936;-69
2023/10/21 06:11:51;;;;;;;;;;;13.90;91.30;;;;;;5093977;28;19951;-70
2023/10/21 06:14:24;;;;;;;;;;;13.90;91.20;;;;;;5100368;27;19946;-70
2023/10/21 06:16:59;;;;;;;;;;;13.90;91.20;;;;;;5102574;28;19974;-70
2023/10/21 06:19:32;;;;;;;;;;;13.90;91.20;;;;;;5102045;28;19952;-71
2023/10/21 06:22:06;;;;;;;;;;;13.90;91.30;;;;;;5098809;28;20413;-69
2023/10/21 06:24:39;;;;;;;;;;;13.90;91.10;;;;;;5091577;28;20255;-70
2023/10/21 06:27:12;;;;;;;;;;;13.90;91.20;;;;;;5099713;28;19924;-70
2023/10/21 06:29:45;;;;;;;;;;;13.90;91.10;;;;;;5093427;28;19932;-70
2023/10/21 06:32:20;;;;;;;;;;;13.90;91.00;;;;;;5097996;28;19931;-71
2023/10/21 06:34:53;;;;;;;;;;;13.90;91.10;;;;;;5100395;28;19943;-69
2023/10/21 06:37:26;;;;;;;;;;;13.90;91.00;;;;;;5096820;28;20014;-69
2023/10/21 06:40:00;;;;;;;;;;;13.90;91.10;;;;;;5094719;28;19924;-70
2023/10/21 06:42:27;;;;;;;;;;;14.00;91.00;;;;;;5097723;28;19928;-70
2023/10/21 06:45:00;;;;;;;;;;;14.00;91.10;;;;;;5095532;28;20366;-61
2023/10/21 06:47:35;;;;;;;;;;;14.00;90.90;;;;;;5088202;28;20478;-61
2023/10/21 06:50:09;;;;;;;;;;;14.00;91.00;;;;;;5094175;28;19928;-62
2023/10/21 06:52:44;;;;;;;;;;;14.00;90.90;;;;;;5099293;28;19963;-62
2023/10/21 06:55:17;;;;;;;;;;;14.10;90.90;;;;;;5091532;28;19931;-61
2023/10/21 06:57:44;;;;;;;;;;;14.10;90.80;;;;;;5092943;28;19934;-61
2023/10/21 07:00:17;;;;;;;;;;;14.10;90.80;;;;;;5107975;27;19934;-61
2023/10/21 07:02:52;;;;;;;;;;;14.10;90.70;;;;;;5090106;28;21487;-60
2023/10/21 07:05:25;;;;;;;;;;;14.10;90.60;;;;;;5091548;28;19923;-62
2023/10/21 07:07:58;;;;;;;;;;;14.10;90.40;;;;;;5095242;28;19946;-61
2023/10/21 07:10:31;;;;;;;;;;;14.10;90.30;;;;;;5091472;28;20401;-61
2023/10/21 07:12:59;;;;;;;;;;;14.10;90.20;;;;;;5086319;27;19924;-61
2023/10/21 07:15:32;;;;;;;;;;;14.20;90.00;;;;;;5099876;27;19927;-61
2023/10/21 07:18:07;;;;;;;;;;;14.20;89.90;;;;;;5099999;28;19943;-62
2023/10/21 07:20:40;;;;;;;;;;;14.20;89.90;;;;;;5101918;28;20358;-61
2023/10/21 07:23:14;;;;;;;;;;;14.30;89.90;;;;;;5100596;27;19983;-61
2023/10/21 07:25:47;;;;;;;;;;;14.30;89.80;;;;;;5093077;28;21133;-62
2023/10/21 07:28:20;;;;;;;;;;;14.30;89.60;;;;;;5097034;28;19932;-61
2023/10/21 07:30:54;;;;;;;;;;;14.30;89.20;;;;;;5089766;28;19942;-62
2023/10/21 07:33:29;;;;;;;;;;;14.30;89.20;;;;;;5091374;28;19967;-62
2023/10/21 07:36:04;;;;;;;;;;;14.30;88.90;;;;;;5100660;28;20387;-61
2023/10/21 07:38:37;;;;;;;;;;;14.40;88.60;;;;;;5094000;28;19971;-62
2023/10/21 07:41:11;;;;;;;;;;;14.40;88.40;;;;;;5096664;28;20252;-62
2023/10/21 07:43:44;;;;;;;;;;;14.40;88.10;;;;;;5099835;27;19973;-61
2023/10/21 07:46:17;;;;;;;;;;;14.30;87.90;;;;;;5099102;28;20313;-62
2023/10/21 07:48:52;;;;;;;;;;;14.40;87.30;;;;;;5088048;28;19932;-62
2023/10/21 07:51:25;;;;;;;;;;;14.50;87.10;;;;;;5090122;28;20008;-61
2023/10/21 07:53:58;;;;;;;;;;;14.60;86.90;;;;;;5099719;28;20371;-60
2023/10/21 07:56:25;;;;;;;;;;;14.60;86.60;;;;;;5090939;28;19932;-60
2023/10/21 07:58:58;;;;;;;;;;;14.70;86.40;;;;;;5097119;28;19928;-61
2023/10/21 08:01:31;;;;;;;;;;;14.70;86.30;;;;;;5093111;28;19955;-61
2023/10/21 08:04:00;;;;;;;;;;;14.70;86.20;;;;;;5091500;28;19954;-61
2023/10/21 08:06:34;;;;;;;;;;;14.70;85.70;;;;;;5089868;28;20014;-61
2023/10/21 08:09:01;;;;;;;;;;;14.60;85.20;;;;;;5097872;28;19931;-61
2023/10/21 08:11:34;;;;;;;;;;;14.70;84.80;;;;;;5101387;28;19935;-62
2023/10/21 08:14:07;;;;;;;;;;;14.60;84.80;;;;;;5102114;28;19931;-60
2023/10/21 08:16:40;;;;;;;;;;;14.60;84.70;;;;;;5099107;27;19928;-62
2023/10/21 08:19:24;;;;;;;;;;;14.60;84.70;;;;;;5100181;28;20010;-60
2023/10/21 08:22:05;;;;;;;;;;;14.70;84.80;;;;;;5099419;28;20010;-61
2023/10/21 08:24:38;;;;;;;;;;;14.70;84.70;;;;;;5099348;28;19938;-62
2023/10/21 08:27:26;;;;;;;;;;;14.80;84.30;;;;;;5098218;28;20203;-62
2023/10/21 08:30:09;;;;;;;;;;;14.90;83.80;;;;;;5100603;27;19924;-61
2023/10/21 08:32:44;;;;;;;;;;;14.90;83.50;;;;;;5101167;28;21764;-61
2023/10/21 08:35:19;;;;;;;;;;;14.90;83.00;;;;;;5098076;28;19931;-62
2023/10/21 08:37:52;;;;;;;;;;;15.00;82.60;;;;;;5093489;28;20011;-63
2023/10/21 08:40:25;;;;;;;;;;;14.90;82.60;;;;;;5094711;28;19943;-61
2023/10/21 08:43:00;;;;;;;;;;;14.90;82.50;;;;;;5093079;28;19938;-63
2023/10/21 08:45:33;;;;;;;;;;;15.10;82.40;;;;;;5091328;28;19935;-61
2023/10/21 08:48:09;;;;;;;;;;;15.10;82.00;;;;;;5097137;28;19928;-61
2023/10/21 08:50:48;;;;;;;;;;;15.20;82.00;;;;;;5096108;28;19934;-61
2023/10/21 08:53:21;;;;;;;;;;;15.10;81.80;;;;;;5087848;28;19950;-61
2023/10/21 08:55:54;;;;;;;;;;;15.10;81.90;;;;;;5094060;28;19928;-61
2023/10/21 08:58:29;;;;;;;;;;;15.10;82.20;;;;;;5098185;28;19928;-62
2023/10/21 09:01:02;;;;;;;;;;;15.10;82.10;;;;;;5093814;28;20014;-61
2023/10/21 09:03:35;;;;;;;;;;;15.10;82.40;;;;;;5091623;28;19933;-63
2023/10/21 09:06:11;;;;;;;;;;;15.10;82.40;;;;;;5092905;28;20426;-65
2023/10/21 09:08:45;;;;;;;;;;;15.00;82.30;;;;;;5085995;28;19924;-64
2023/10/21 09:11:20;;;;;;;;;;;15.00;81.90;;;;;;5073878;28;19928;-66
2023/10/21 09:13:58;;;;;;;;;;;15.10;81.80;;;;;;5089018;28;20552;-64
2023/10/21 09:16:32;;;;;;;;;;;15.10;81.80;;;;;;5081970;28;19927;-67
2023/10/21 09:19:06;;;;;;;;;;;15.10;81.50;;;;;;5081494;28;19954;-64
2023/10/21 09:21:41;;;;;;;;;;;15.10;81.20;;;;;;5088218;28;19924;-66
2023/10/21 09:24:21;;;;;;;;;;;15.30;81.20;;;;;;5089701;28;19993;-65
2023/10/21 09:26:55;;;;;;;;;;;15.50;80.60;;;;;;5092913;28;19928;-65
2023/10/21 09:29:29;;;;;;;;;;;15.60;80.30;;;;;;5095186;28;19986;-66
2023/10/21 09:32:02;;;;;;;;;;;15.60;80.00;;;;;;5091860;28;20402;-66
2023/10/21 09:34:37;;;;;;;;;;;15.60;80.00;;;;;;5095083;28;19927;-66
2023/10/21 09:37:12;;;;;;;;;;;15.70;79.30;;;;;;5091185;28;19965;-66
2023/10/21 09:39:46;;;;;;;;;;;15.60;78.40;;;;;;5091301;28;19984;-65
2023/10/21 09:42:21;;;;;;;;;;;15.60;78.30;;;;;;5098847;28;19978;-65
2023/10/21 09:44:55;;;;;;;;;;;15.60;77.50;;;;;;5088905;28;19963;-66
2023/10/21 09:47:29;;;;;;;;;;;15.60;77.60;;;;;;5090206;28;19942;-64
2023/10/21 09:50:06;;;;;;;;;;;15.60;77.40;;;;;;5087213;28;20018;-65
2023/10/21 09:52:45;;;;;;;;;;;15.60;77.30;;;;;;5094099;28;19934;-65
2023/10/21 09:55:24;;;;;;;;;;;15.50;77.40;;;;;;5087104;28;19932;-65
2023/10/21 09:57:58;;;;;;;;;;;15.60;77.00;;;;;;5092040;28;19938;-65
2023/10/21 10:00:31;;;;;;;;;;;15.60;77.10;;;;;;5090462;28;20294;-65
2023/10/21 10:03:05;;;;;;;;;;;15.80;77.10;;;;;;5090631;28;20583;-65
2023/10/21 10:05:39;;;;;;;;;;;16.00;77.10;;;;;;5096231;28;19955;-65
2023/10/21 10:08:13;;;;;;;;;;;16.20;76.80;;;;;;5086373;28;20383;-66
2023/10/21 10:10:48;;;;;;;;;;;16.40;76.10;;;;;;5097115;28;19935;-65
2023/10/21 10:13:21;;;;;;;;;;;16.60;76.20;;;;;;5099385;28;19934;-65
2023/10/21 10:15:55;;;;;;;;;;;16.70;76.00;;;;;;5097341;28;19955;-62
2023/10/21 10:18:29;;;;;;;;;;;16.70;75.90;;;;;;5095237;28;19923;-61
2023/10/21 10:21:04;;;;;;;;;;;16.60;75.90;;;;;;5096237;28;19923;-62
2023/10/21 10:23:39;;;;;;;;;;;16.60;75.30;;;;;;5102567;28;20324;-61
2023/10/21 10:26:15;;;;;;;;;;;16.50;75.00;;;;;;5099245;28;19924;-62
2023/10/21 10:28:48;;;;;;;;;;;16.40;75.10;;;;;;5100993;28;19989;-62
2023/10/21 10:31:22;;;;;;;;;;;16.40;75.00;;;;;;5096552;28;19967;-63
2023/10/21 10:33:56;;;;;;;;;;;16.50;74.60;;;;;;5097357;28;20456;-61
2023/10/21 10:36:30;;;;;;;;;;;16.50;74.80;;;;;;5097834;28;19924;-62
2023/10/21 10:39:05;;;;;;;;;;;16.60;74.70;;;;;;5090992;28;19959;-62
2023/10/21 10:41:43;;;;;;;;;;;16.60;74.70;;;;;;5099726;28;19931;-64
2023/10/21 10:44:17;;;;;;;;;;;16.60;74.60;;;;;;5095625;28;19928;-62
2023/10/21 10:46:53;;;;;;;;;;;16.70;73.90;;;;;;5097825;27;19924;-62
2023/10/21 10:49:27;;;;;;;;;;;16.70;73.60;;;;;;5094880;27;19984;-61
2023/10/21 10:52:00;;;;;;;;;;;16.80;73.70;;;;;;5088410;28;22076;-62
2023/10/21 10:54:35;;;;;;;;;;;16.90;73.50;;;;;;5094373;28;19935;-62
2023/10/21 10:57:16;;;;;;;;;;;16.90;73.40;;;;;;5096262;28;19928;-62
2023/10/21 10:59:50;;;;;;;;;;;16.90;73.10;;;;;;5099907;28;19930;-62
2023/10/21 11:02:27;;;;;;;;;;;17.00;72.90;;;;;;5093689;28;19928;-62
2023/10/21 11:05:00;;;;;;;;;;;17.00;72.40;;;;;;5099092;28;19934;-64
2023/10/21 11:07:33;;;;;;;;;;;17.10;72.30;;;;;;5099093;28;20374;-62
2023/10/21 11:10:08;;;;;;;;;;;17.10;72.10;;;;;;5093221;28;19927;-63
2023/10/21 11:12:41;;;;;;;;;;;17.10;71.70;;;;;;5096472;28;20405;-62
2023/10/21 11:15:14;;;;;;;;;;;17.20;71.30;;;;;;5096786;28;19927;-62
2023/10/21 11:17:47;;;;;;;;;;;17.30;70.70;;;;;;5097276;28;20027;-63
2023/10/21 11:20:20;;;;;;;;;;;17.30;70.60;;;;;;5094495;27;19942;-62
2023/10/21 11:22:54;;;;;;;;;;;17.30;70.30;;;;;;5096985;28;19931;-63
2023/10/21 11:25:29;;;;;;;;;;;17.30;70.50;;;;;;5093365;28;19946;-68
2023/10/21 11:28:02;;;;;;;;;;;17.20;69.80;;;;;;5097039;28;19930;-68
2023/10/21 11:30:36;;;;;;;;;;;17.20;69.80;;;;;;5096498;28;19955;-69
2023/10/21 11:33:10;;;;;;;;;;;17.10;69.80;;;;;;5097058;28;19932;-68
2023/10/21 11:35:44;;;;;;;;;;;17.10;70.30;;;;;;5097350;28;19982;-69
2023/10/21 11:38:18;;;;;;;;;;;17.10;70.50;;;;;;5098827;28;19927;-68
2023/10/21 11:40:47;;;;;;;;;;;17.10;71.30;;;;;;5095299;28;19928;-70
2023/10/21 11:43:19;;;;;;;;;;;17.00;70.90;;;;;;5098587;28;20830;-69
2023/10/21 11:45:54;;;;;;;;;;;16.80;70.20;;;;;;5096274;28;19928;-69
2023/10/21 11:48:27;;;;;;;;;;;16.70;70.30;;;;;;5094638;28;19925;-69
2023/10/21 11:51:01;;;;;;;;;;;16.70;70.50;;;;;;5097279;28;19935;-68
2023/10/21 11:53:35;;;;;;;;;;;16.70;70.50;;;;;;5095873;28;19956;-69
2023/10/21 12:02:29;;;;;;;;;;;16.90;68.50;;;;;;5093685;28;19924;-69
2023/10/21 12:13:47;;;;;;;;;;;17.30;66.90;;;;;;5093097;28;19927;-70
2023/10/21 12:16:32;;;;;;;;;;;17.30;67.20;;;;;;5097903;28;19932;-71
2023/10/21 12:19:27;;;;;;;;;;;17.30;67.30;;;;;;5098812;28;19939;-70
2023/10/21 12:33:58;;;;;;;;;;;17.20;67.90;;;;;;5098740;28;19927;-69
2023/10/21 12:36:33;;;;;;;;;;;17.10;68.10;;;;;;5092679;28;19924;-61
2023/10/21 12:39:21;;;;;;;;;;;17.00;67.60;;;;;;5096210;28;19934;-62
2023/10/21 12:41:56;;;;;;;;;;;16.90;67.70;;;;;;5098394;28;19931;-63
2023/10/21 12:44:31;;;;;;;;;;;16.80;67.70;;;;;;5092408;28;19928;-62
2023/10/21 12:47:07;;;;;;;;;;;16.90;67.80;;;;;;5092640;28;19928;-63
2023/10/21 12:49:43;;;;;;;;;;;16.90;68.20;;;;;;5097012;28;19993;-62
2023/10/21 12:52:17;;;;;;;;;;;16.90;68.60;;;;;;5096782;28;19939;-62
2023/10/21 12:54:50;;;;;;;;;;;16.90;68.50;;;;;;5091121;28;19939;-62
2023/10/21 12:57:24;;;;;;;;;;;16.90;68.80;;;;;;5098452;28;20338;-62
2023/10/21 12:59:57;;;;;;;;;;;16.90;68.80;;;;;;5096757;28;19928;-62
2023/10/21 13:02:35;;;;;;;;;;;16.90;69.40;;;;;;5091231;28;19924;-64
2023/10/21 13:05:08;;;;;;;;;;;17.00;68.90;;;;;;5087286;28;20040;-61
2023/10/21 13:07:41;;;;;;;;;;;16.90;68.70;;;;;;5097254;28;19934;-62
2023/10/21 13:10:15;;;;;;;;;;;16.90;68.80;;;;;;5098536;28;19927;-62
2023/10/21 13:12:48;;;;;;;;;;;16.80;68.70;;;;;;5094569;28;19931;-62
2023/10/21 13:15:23;;;;;;;;;;;16.90;68.60;;;;;;5091073;28;19927;-61
2023/10/21 13:17:58;;;;;;;;;;;16.90;68.40;;;;;;5095492;28;19992;-62
2023/10/21 13:20:32;;;;;;;;;;;16.90;68.40;;;;;;5089455;28;19935;-61
2023/10/21 13:23:05;;;;;;;;;;;16.90;68.80;;;;;;5093993;28;19957;-60
2023/10/21 13:25:38;;;;;;;;;;;16.90;68.50;;;;;;5099714;28;19935;-61
2023/10/21 13:28:11;;;;;;;;;;;16.90;67.80;;;;;;5092765;28;20626;-61
2023/10/21 13:30:47;;;;;;;;;;;16.90;68.60;;;;;;5097933;28;20383;-62
2023/10/21 13:33:22;;;;;;;;;;;16.90;69.00;;;;;;5094256;28;19931;-63
2023/10/21 13:35:55;;;;;;;;;;;16.90;68.20;;;;;;5093442;28;19923;-61
2023/10/21 13:38:28;;;;;;;;;;;16.90;68.60;;;;;;5096733;28;19923;-61
2023/10/21 13:41:04;;;;;;;;;;;16.90;68.30;;;;;;5100224;28;19924;-61
2023/10/21 13:43:38;;;;;;;;;;;16.80;68.20;;;;;;5100533;28;19932;-62
2023/10/21 13:46:11;;;;;;;;;;;16.90;67.60;;;;;;5099886;28;19940;-67
2023/10/21 13:48:46;;;;;;;;;;;16.80;67.90;;;;;;5096225;28;19928;-67
2023/10/21 13:51:19;;;;;;;;;;;16.80;68.60;;;;;;5094076;28;19931;-66
2023/10/21 13:53:53;;;;;;;;;;;16.70;67.90;;;;;;5098196;28;19955;-67
2023/10/21 13:56:26;;;;;;;;;;;16.80;67.90;;;;;;5096465;28;19932;-67
2023/10/21 13:59:00;;;;;;;;;;;16.80;67.80;;;;;;5101347;27;19981;-66
2023/10/21 14:01:33;;;;;;;;;;;16.80;67.80;;;;;;5100649;28;19924;-67
2023/10/21 14:04:09;;;;;;;;;;;16.80;67.50;;;;;;5090488;28;19931;-66
2023/10/21 14:06:42;;;;;;;;;;;16.80;67.40;;;;;;5095591;28;19929;-67
2023/10/21 14:09:22;;;;;;;;;;;16.70;67.80;;;;;;5096999;28;19928;-67
2023/10/21 14:11:55;;;;;;;;;;;16.80;68.00;;;;;;5094692;28;20397;-67
2023/10/21 14:14:28;;;;;;;;;;;16.80;67.90;;;;;;5094454;28;19928;-67
2023/10/21 14:17:01;;;;;;;;;;;16.70;67.80;;;;;;5101179;28;19924;-66
2023/10/21 14:19:36;;;;;;;;;;;16.70;68.00;;;;;;5094681;28;19924;-67
2023/10/21 14:22:09;;;;;;;;;;;16.70;68.50;;;;;;5099210;28;19959;-66
2023/10/21 14:24:42;;;;;;;;;;;16.70;68.90;;;;;;5091267;28;20402;-67
2023/10/21 14:27:15;;;;;;;;;;;16.70;68.30;;;;;;5103578;28;19973;-66
2023/10/21 14:29:48;;;;;;;;;;;16.70;68.40;;;;;;5090980;28;19939;-67
2023/10/21 14:32:21;;;;;;;;;;;16.70;69.00;;;;;;5096755;28;20028;-66
2023/10/21 14:34:56;;;;;;;;;;;16.70;68.50;;;;;;5093387;28;19924;-68
2023/10/21 14:37:30;;;;;;;;;;;16.60;68.70;;;;;;5106438;27;20239;-68
2023/10/21 14:40:06;;;;;;;;;;;16.60;68.60;;;;;;5096712;28;19931;-66
2023/10/21 14:42:39;;;;;;;;;;;16.60;68.00;;;;;;5101223;28;19966;-67
2023/10/21 14:45:12;;;;;;;;;;;16.60;67.40;;;;;;5100886;28;19932;-67
2023/10/21 14:47:45;;;;;;;;;;;16.60;66.90;;;;;;5100003;27;19931;-67
2023/10/21 14:50:20;;;;;;;;;;;16.60;66.50;;;;;;5097297;28;20371;-67
2023/10/21 14:52:53;;;;;;;;;;;16.50;66.80;;;;;;5099448;28;19928;-66
2023/10/21 14:55:27;;;;;;;;;;;16.60;66.50;;;;;;5100440;28;19928;-70
2023/10/21 14:58:00;;;;;;;;;;;16.50;66.60;;;;;;5100393;28;19924;-70
2023/10/21 15:00:33;;;;;;;;;;;16.40;66.80;;;;;;5100584;28;19931;-70
2023/10/21 15:03:08;;;;;;;;;;;16.40;66.60;;;;;;5090124;28;19928;-68
2023/10/21 15:05:42;;;;;;;;;;;16.40;67.00;;;;;;5093679;28;19935;-70
2023/10/21 15:08:19;;;;;;;;;;;16.30;67.20;;;;;;5092984;28;19928;-69
2023/10/21 15:10:53;;;;;;;;;;;16.30;68.20;;;;;;5093428;28;19930;-69
2023/10/21 15:13:26;;;;;;;;;;;16.20;68.70;;;;;;5094432;28;19924;-68
2023/10/21 15:16:00;;;;;;;;;;;16.20;68.70;;;;;;5088179;28;19928;-70
2023/10/21 15:18:33;;;;;;;;;;;16.10;68.90;;;;;;5090204;27;19975;-69
2023/10/21 15:21:08;;;;;;;;;;;16.10;69.10;;;;;;5094691;28;19925;-69